SBGOSBCY

Guest
Details From SBGO - Santo Genoveva
To SBCY - Marechal Rondon
Flight Number -
Tags Decoded
Created
Modified
Stats Distance 402 nm / 744 km
Max Altitude 0 ft / 0 m
Waypoints 2
Social Downloads 1
Likes 0
Share VATSIM

Download

Looking for another format? Having issues loading an existing format? Contact us
Advertisement - Login to hide

Notes

Decoded

Route

SBGO SBCY

ID Type Via Altitude Latitude Longitude Leg Dist Tot Dist Heading (true) Name
O SBGO APT - 0 ft / 0 m -16.62634˚ -49.23081˚ - 0 nm - -
O SBCY APT - 0 ft / 0 m -15.64372˚ -56.12163˚ 401 nm 401 nm 277° / 279° -

Altitude Profile

Advertisement - Login to hide

Weather


0- 5 10 15 20 25 30 35+ Temperature / ° C

Clouds and Precipitation
Forecast for 2017-12-13 06:00 UTC. Updated 29 minutes ago

Ground ~20,000 ft ~40,000 ft Winds

SBGO

Details ICAO SBGO (GYN)
Name Santo Genoveva
Region Brazil
Timezone America/Sao_Paulo (UTC-2.0)
Stats Elevation 2,450 ft / 747 m (AMSL)
Location -16.632032° -49.220686°
Runways 1
Magnetic Variation 20.988° W

METAR

SBGO 130100Z 14004KT 9999 -RA SCT035 FEW050TCU OVC070 21/20 Q1016

Decode

TAF

TAF SBGO 122000Z 1300/1324 01001KT 9999 FEW030TCU TN20/1308Z TX26/1317Z PROB30 1300/1306 1000 TSRA BR BKN003 FEW035CB BECMG 1304/1306 BKN020 PROB30 1308/1313 5000 RA BKN009 BECMG 1313/1315 11004KT 9999 BKN020 FEW035TCU PROB30 1317/1321 4000 SHRA BKN035 FEW040TCU RMK PDC

Decode

Departure Runways

ID Width Length Bearing (true) Bearing (mag) Surface Threshold Offset Overrun Length
14 148 ft / 45 m 8,208 ft / 2,502 m 120.42° 141.41° Asphalt 0 ft / 0 m 0 ft / 0 m
32 148 ft / 45 m 8,208 ft / 2,502 m 300.41° 321.40° Asphalt 980 ft / 299 m 0 ft / 0 m

SBCY

Details ICAO SBCY (CGB)
Name Marechal Rondon
Region Brazil
Timezone America/Cuiaba (UTC-3.0)
Stats Elevation 609 ft / 186 m (AMSL)
Location -15.652930° -56.116720°
Runways 1
Magnetic Variation 17.397° W

METAR

SBCY 130100Z 06005KT CAVOK 27/20 Q1009

Decode

TAF

TAF SBCY 122200Z 1300/1324 33005KT CAVOK TN22/1309Z TX32/1318Z BECMG 1305/1307 30005KT BECMG 1310/1312 33008KT BECMG 1315/1317 36008KT SCT020 FEW025TCU BECMG 1321/1323 33005KT RMK PEH

Decode

Destination Runways

ID Width Length Bearing (true) Bearing (mag) Surface Threshold Offset Overrun Length
17 148 ft / 45 m 7,558 ft / 2,304 m 152.83° 170.23° Asphalt 0 ft / 0 m 190 ft / 58 m
35 148 ft / 45 m 7,558 ft / 2,304 m 332.82° 350.22° Asphalt 0 ft / 0 m 190 ft / 58 m

Approach Navaids

Runway Type Ident Frequency Range Bearing (true) Bearing (mag) Slope Elevation
35 Localiser ICB 109.30 MHz 18 nm / 33 km 333.66° 351.05° - 609 ft / 186 m (AMSL)

Popular Alternatives